createdAt,value
2024-01-29T00:01:07.473Z,15.3
2024-01-29T00:07:06.368Z,16.1
2024-01-29T00:13:03.929Z,17.1
2024-01-29T00:18:58.672Z,16.3
2024-01-29T00:24:53.117Z,15.9
2024-01-29T00:30:31.561Z,15.4
2024-01-29T00:36:32.468Z,15.6
2024-01-29T00:42:27.344Z,16.9
2024-01-29T00:48:05.636Z,16.6
2024-01-29T00:54:08.360Z,16
2024-01-29T01:00:03.340Z,15.5
2024-01-29T01:06:04.903Z,15.3
2024-01-29T01:11:58.731Z,16.8
2024-01-29T01:17:37.579Z,17.1
2024-01-29T01:23:33.196Z,16.1
2024-01-29T01:29:27.447Z,15.7
2024-01-29T01:35:22.681Z,15.3
2024-01-29T01:41:19.650Z,16.5
2024-01-29T01:47:16.792Z,15.6
2024-01-29T01:53:16.335Z,16.8
2024-01-29T01:59:11.934Z,17.1
2024-01-29T02:05:09.465Z,16.2
2024-01-29T02:11:04.636Z,15.7
2024-01-29T02:16:58.784Z,15.3
2024-01-29T02:22:53.609Z,16.6
2024-01-29T02:28:47.825Z,17.3
2024-01-29T02:34:45.220Z,16.3
2024-01-29T02:40:39.107Z,16.3
2024-01-29T02:46:18.114Z,17.2
2024-01-29T02:52:14.175Z,16.4
2024-01-29T02:58:08.233Z,15.9
2024-01-29T03:04:03.424Z,15.4
2024-01-29T03:10:02.561Z,16.1
2024-01-29T03:21:38.604Z,16.7
2024-01-29T03:27:36.028Z,15.9
2024-01-29T03:33:30.117Z,16.8
2024-01-29T03:45:03.454Z,16.1
2024-01-29T03:50:58.496Z,16.4
2024-01-29T03:56:55.671Z,17.2
2024-01-29T04:02:52.541Z,16.3
2024-01-29T04:08:33.660Z,15.9
2024-01-29T04:14:27.497Z,16.9
2024-01-29T04:20:28.015Z,15.4
2024-01-29T04:26:24.935Z,16.7
2024-01-29T04:32:04.365Z,17.3
2024-01-29T04:37:59.528Z,16.2
2024-01-29T04:43:54.617Z,16.1
2024-01-29T04:49:35.652Z,17.1
2024-01-29T04:55:14.958Z,16.6
2024-01-29T05:00:37.794Z,16
2024-01-29T05:06:21.922Z,15.6
2024-01-29T05:12:01.828Z,15.3
2024-01-29T05:17:24.897Z,16.8
2024-01-29T05:23:07.099Z,17.3
2024-01-29T05:29:02.533Z,16.3
2024-01-29T05:34:51.694Z,15.9
2024-01-29T05:46:08.855Z,16.8
2024-01-29T05:51:48.322Z,16
2024-01-29T05:57:42.684Z,16.6
2024-01-29T06:03:21.972Z,17.3
2024-01-29T06:09:04.208Z,16.2
2024-01-29T06:14:45.649Z,16
2024-01-29T06:20:50.764Z,17.1
2024-01-29T06:26:30.198Z,16.5
2024-01-29T06:32:27.726Z,15.9
2024-01-29T06:38:25.098Z,16.8
2024-01-29T06:44:21.613Z,16.1
2024-01-29T06:50:16.645Z,16.2
2024-01-29T06:56:11.747Z,17.2
2024-01-29T07:02:06.148Z,16.4
2024-01-29T07:08:06.542Z,15.8
2024-01-29T07:14:01.273Z,15.4
2024-01-29T07:19:56.082Z,15.9
2024-01-29T07:31:32.557Z,16.6
2024-01-29T07:37:28.374Z,15.9
2024-01-29T07:43:25.516Z,16.6
2024-01-29T07:49:20.388Z,17.1
2024-01-29T07:55:16.819Z,16.1
2024-01-29T08:01:12.445Z,16.3
2024-01-29T08:07:09.479Z,17.1
2024-01-29T08:13:04.607Z,16.3
2024-01-29T08:19:00.577Z,15.8
2024-01-29T08:25:00.832Z,16.9
2024-01-29T08:30:54.873Z,16.6
2024-01-29T08:36:52.304Z,15.9
2024-01-29T08:42:47.239Z,16.7
2024-01-29T08:48:44.733Z,17.1
2024-01-29T08:54:42.693Z,15.9
2024-01-29T09:00:39.761Z,16.3
2024-01-29T09:06:35.501Z,17.1
2024-01-29T09:12:41.900Z,16.2
2024-01-29T09:18:22.466Z,16.2
2024-01-29T09:24:16.770Z,17.3
2024-01-29T09:30:12.398Z,16.5
2024-01-29T09:36:21.812Z,15.8
2024-01-29T09:42:15.747Z,17.2
2024-01-29T09:48:13.044Z,16.8
2024-01-29T09:53:40.316Z,15.9
2024-01-29T09:59:37.386Z,16.8
2024-01-29T10:05:36.050Z,17.4
2024-01-29T10:11:15.359Z,16.1
2024-01-29T10:17:09.284Z,16.2
2024-01-29T10:23:05.289Z,17.3
2024-01-29T10:28:46.215Z,16.4
2024-01-29T10:34:10.521Z,15.9
2024-01-29T10:39:20.894Z,17.1
2024-01-29T10:45:22.235Z,16.9
2024-01-29T10:51:02.049Z,15.9
2024-01-29T10:56:43.077Z,16.8
2024-01-29T11:02:32.652Z,16.4
2024-01-29T11:08:15.293Z,16.3
2024-01-29T11:13:55.736Z,17.3
2024-01-29T11:19:36.617Z,16.7
2024-01-29T11:25:38.357Z,15.9
2024-01-29T11:31:17.976Z,15.6
2024-01-29T11:37:28.728Z,15.4
2024-01-29T11:43:23.192Z,15.2
2024-01-29T11:49:21.916Z,16.2
2024-01-29T11:55:32.002Z,16.8
2024-01-29T12:01:11.692Z,15.9
2024-01-29T12:06:51.763Z,15.5
2024-01-29T12:12:50.293Z,15.2
2024-01-29T12:18:46.276Z,16.3
2024-01-29T12:24:44.397Z,16.7
2024-01-29T12:30:39.004Z,15.9
2024-01-29T12:36:21.053Z,15.5
2024-01-29T12:42:18.255Z,15.1
2024-01-29T12:48:12.408Z,16.3
2024-01-29T12:54:08.987Z,16.6
2024-01-29T12:59:48.991Z,15.8
2024-01-29T13:05:34.634Z,16.3
2024-01-29T13:11:33.892Z,16.6
2024-01-29T13:17:28.858Z,15.8
2024-01-29T13:23:24.114Z,16.6
2024-01-29T13:29:05.531Z,16.4
2024-01-29T13:35:04.073Z,15.8
2024-01-29T13:40:44.405Z,16.7
2024-01-29T13:46:43.171Z,16.2
2024-01-29T13:52:38.811Z,15.8
2024-01-29T13:58:35.445Z,16.9
2024-01-29T14:04:31.353Z,16.1
2024-01-29T14:10:28.026Z,15.8
2024-01-29T14:16:37.437Z,15.6
2024-01-29T14:22:34.484Z,15.4
2024-01-29T14:28:29.581Z,15.2
2024-01-29T14:34:28.537Z,15
2024-01-29T14:40:27.468Z,14.9
2024-01-29T14:46:22.024Z,14.7
2024-01-29T14:52:21.567Z,14.6
2024-01-29T14:58:15.732Z,14.5
2024-01-29T15:04:13.780Z,14.4
2024-01-29T15:10:11.596Z,14.4
2024-01-29T15:16:08.768Z,14.4
2024-01-29T15:22:05.261Z,14.6
2024-01-29T15:28:02.141Z,14.7
2024-01-29T15:33:57.106Z,14.8
2024-01-29T15:39:51.952Z,15.1
2024-01-29T15:45:49.015Z,15.1
2024-01-29T15:51:52.341Z,15.2
2024-01-29T15:57:46.229Z,15.1
2024-01-29T16:03:41.347Z,15.1
2024-01-29T16:09:36.233Z,15.1
2024-01-29T16:15:30.673Z,15
2024-01-29T16:21:29.981Z,15
2024-01-29T16:27:24.044Z,14.9
2024-01-29T16:33:19.576Z,14.8
2024-01-29T16:39:16.145Z,14.8
2024-01-29T16:45:13.827Z,14.8
2024-01-29T16:51:10.184Z,14.8
2024-01-29T16:57:05.324Z,14.8
2024-01-29T17:03:01.501Z,14.8
2024-01-29T17:08:57.583Z,14.6
2024-01-29T17:14:55.140Z,14.6
2024-01-29T17:20:54.460Z,14.6
2024-01-29T17:26:49.000Z,14.5
2024-01-29T17:32:43.099Z,14.5
2024-01-29T17:38:40.116Z,14.5
2024-01-29T17:44:36.223Z,14.5
2024-01-29T17:50:32.072Z,14.6
2024-01-29T17:56:29.217Z,14.6
2024-01-29T18:02:24.692Z,14.6
2024-01-29T18:08:04.468Z,14.6
2024-01-29T18:13:42.876Z,14.6
2024-01-29T18:19:25.342Z,14.6
2024-01-29T18:25:04.281Z,14.6
2024-01-29T18:31:01.041Z,14.6
2024-01-29T18:36:56.218Z,14.5
2024-01-29T18:42:50.611Z,14.6
2024-01-29T18:48:48.262Z,14.8
2024-01-29T18:54:43.210Z,14.8
2024-01-29T19:00:38.162Z,15
2024-01-29T19:06:37.739Z,15
2024-01-29T19:12:36.110Z,14.7
2024-01-29T19:18:34.137Z,14.9
2024-01-29T19:24:13.452Z,15
2024-01-29T19:29:52.287Z,15.1
2024-01-29T19:35:32.489Z,14.9
2024-01-29T19:41:27.985Z,14.9
2024-01-29T19:47:22.434Z,15
2024-01-29T19:53:20.166Z,14.9
2024-01-29T19:59:15.294Z,14.9
2024-01-29T20:05:10.560Z,14.8
2024-01-29T20:11:07.096Z,14.8
2024-01-29T20:17:01.975Z,14.7
2024-01-29T20:22:58.376Z,14.6
2024-01-29T20:28:54.430Z,14.5
2024-01-29T20:34:49.062Z,14.4
2024-01-29T20:40:45.896Z,14.4
2024-01-29T20:46:44.816Z,14.3
2024-01-29T20:52:41.118Z,14.2
2024-01-29T20:58:47.167Z,14.1
2024-01-29T21:04:42.826Z,14.1
2024-01-29T21:10:23.199Z,14
2024-01-29T21:16:20.832Z,13.9
2024-01-29T21:22:15.950Z,13.9
2024-01-29T21:28:10.252Z,13.8
2024-01-29T21:34:07.410Z,13.8
2024-01-29T21:39:46.043Z,13.7
2024-01-29T21:45:40.461Z,13.7
2024-01-29T21:51:36.035Z,13.6
2024-01-29T21:57:30.689Z,13.6
2024-01-29T22:03:28.155Z,14.8
2024-01-29T22:09:07.521Z,16.2
2024-01-29T22:14:46.844Z,17.1
2024-01-29T22:26:21.429Z,16.3
2024-01-29T22:32:18.641Z,15.8
2024-01-29T22:37:58.063Z,15.6
2024-01-29T22:43:52.933Z,16.7
2024-01-29T22:49:32.250Z,17.4
2024-01-29T22:55:28.779Z,16.6
2024-01-29T23:01:09.422Z,16.1
2024-01-29T23:07:05.257Z,15.7
2024-01-29T23:12:59.374Z,15.9
2024-01-29T23:24:35.837Z,17.1
2024-01-29T23:30:29.503Z,16.3
2024-01-29T23:36:24.916Z,15.8
2024-01-29T23:42:18.664Z,15.5
2024-01-29T23:47:57.038Z,16.6
2024-01-29T23:53:36.409Z,17.2
2024-01-29T23:59:15.744Z,16.9
